RJSI

Hanamaki Airport

Airport
ICAO code
RJSI
IATA Code
HNA
Summary
ICAO Region
APAC
ICAO Territory
Location

Hanamaki, Iwate Prefecture

Serving
Hanamaki
Elevation
294 ft
Coordinates
39° 25' 17" N , 141° 8' 18" E
KCC
Metar
Observation
RJSI 030800Z 28005KT 240V340 9999 FEW020 SCT040 BKN050 M01/M09 Q1019
Station
Hanamaki Airport
Date/Time
2023-02-03 08:00:00
Wind direction
280°
Wind speed
05 kts
Lowest cloud amount
few clouds
Temperature
-1°C
Dew point
-9°C
Humidity
54%
QNH
1019 hPa
Weather condition
n/a

Regional airport located 6 km north-northeast of the city of Hanamaki, Iwate Prefecture, in the Tohoku region of northern Japan.

Climatology

Humid Sub-tropical climate (Köppen climate classification Cfa)

Runways

Designator Length Width Surface Rops
2/20 2500 45 ASP Yes/Yes

Airport map

Aerial View

SKYbrary Partners:

Safety knowledge contributed by: